createdAt,value
2023-05-12T00:01:17.016Z,100.00
2023-05-12T00:06:18.620Z,100.00
2023-05-12T00:11:21.101Z,100.00
2023-05-12T00:16:22.731Z,100.00
2023-05-12T00:21:24.569Z,100.00
2023-05-12T00:26:26.214Z,100.00
2023-05-12T00:31:27.865Z,100.00
2023-05-12T00:36:29.716Z,100.00
2023-05-12T00:41:31.246Z,100.00
2023-05-12T00:46:33.038Z,100.00
2023-05-12T00:51:34.952Z,100.00
2023-05-12T00:56:40.355Z,100.00
2023-05-12T01:01:44.139Z,100.00
2023-05-12T01:06:55.567Z,100.00
2023-05-12T01:11:57.121Z,100.00
2023-05-12T01:17:01.809Z,100.00
2023-05-12T01:22:10.676Z,100.00
2023-05-12T01:27:14.571Z,100.00
2023-05-12T01:32:16.764Z,100.00
2023-05-12T01:37:18.850Z,100.00
2023-05-12T01:42:21.575Z,100.00
2023-05-12T01:47:24.146Z,100.00
2023-05-12T01:52:37.333Z,100.00
2023-05-12T01:57:42.859Z,100.00
2023-05-12T02:02:44.758Z,100.00
2023-05-12T02:07:48.636Z,100.00
2023-05-12T02:12:51.229Z,100.00
2023-05-12T02:17:54.510Z,100.00
2023-05-12T02:22:57.831Z,100.00
2023-05-12T02:27:59.461Z,100.00
2023-05-12T02:33:01.184Z,100.00
2023-05-12T02:38:02.843Z,100.00
2023-05-12T02:43:04.610Z,100.00
2023-05-12T02:48:06.652Z,100.00
2023-05-12T02:53:08.628Z,100.00
2023-05-12T02:58:10.782Z,100.00
2023-05-12T03:03:12.512Z,100.00
2023-05-12T03:08:15.106Z,100.00
2023-05-12T03:13:16.906Z,100.00
2023-05-12T03:18:18.534Z,100.00
2023-05-12T03:23:20.198Z,100.00
2023-05-12T03:28:23.229Z,100.00
2023-05-12T03:33:27.252Z,100.00
2023-05-12T03:38:33.270Z,100.00
2023-05-12T03:43:35.982Z,100.00
2023-05-12T03:48:39.246Z,100.00
2023-05-12T03:53:45.219Z,100.00
2023-05-12T03:58:48.036Z,100.00
2023-05-12T04:03:51.559Z,100.00
2023-05-12T04:08:53.497Z,100.00
2023-05-12T04:13:55.238Z,100.00
2023-05-12T04:18:57.588Z,100.00
2023-05-12T04:23:59.476Z,100.00
2023-05-12T04:29:04.449Z,100.00
2023-05-12T04:34:06.290Z,100.00
2023-05-12T04:39:09.616Z,100.00
2023-05-12T04:44:11.726Z,100.00
2023-05-12T04:49:14.361Z,100.00
2023-05-12T04:54:16.103Z,100.00
2023-05-12T04:59:17.924Z,100.00
2023-05-12T05:04:21.394Z,100.00
2023-05-12T05:09:23.650Z,100.00
2023-05-12T05:14:25.906Z,100.00
2023-05-12T05:19:46.137Z,100.00
2023-05-12T05:24:52.131Z,100.00
2023-05-12T05:29:56.365Z,100.00
2023-05-12T05:34:58.164Z,100.00
2023-05-12T05:39:59.869Z,100.00
2023-05-12T05:45:01.596Z,100.00
2023-05-12T05:50:06.936Z,100.00
2023-05-12T05:55:11.170Z,100.00
2023-05-12T06:00:14.377Z,100.00
2023-05-12T06:05:19.606Z,100.00
2023-05-12T06:10:22.090Z,100.00
2023-05-12T06:15:23.899Z,100.00
2023-05-12T06:20:25.959Z,100.00
2023-05-12T06:25:27.724Z,100.00
2023-05-12T06:30:29.657Z,100.00
2023-05-12T06:35:31.551Z,100.00
2023-05-12T06:40:33.485Z,100.00
2023-05-12T06:45:35.149Z,100.00
2023-05-12T06:50:36.746Z,100.00
2023-05-12T06:55:39.369Z,100.00
2023-05-12T07:00:43.407Z,100.00
2023-05-12T07:05:45.846Z,100.00
2023-05-12T07:10:47.521Z,100.00
2023-05-12T07:15:49.126Z,100.00
2023-05-12T07:20:50.782Z,98.80
2023-05-12T07:25:52.344Z,98.01
2023-05-12T07:30:53.957Z,97.29
2023-05-12T07:35:55.775Z,95.20
2023-05-12T07:40:57.506Z,93.95
2023-05-12T07:46:00.969Z,92.34
2023-05-12T07:51:02.942Z,91.05
2023-05-12T07:56:04.632Z,90.49
2023-05-12T08:01:07.014Z,90.06
2023-05-12T08:06:08.687Z,87.90
2023-05-12T08:11:11.116Z,88.51
2023-05-12T08:16:12.851Z,87.81
2023-05-12T08:21:14.570Z,86.25
2023-05-12T08:26:21.519Z,85.51
2023-05-12T08:31:23.508Z,87.49
2023-05-12T08:36:25.102Z,87.46
2023-05-12T08:41:38.868Z,85.05
2023-05-12T08:46:43.345Z,83.83
2023-05-12T08:51:54.431Z,82.16
2023-05-12T09:02:08.115Z,82.02
2023-05-12T09:07:16.319Z,79.85
2023-05-12T09:12:19.632Z,77.35
2023-05-12T09:17:21.353Z,78.71
2023-05-12T09:22:30.711Z,78.96
2023-05-12T09:27:33.721Z,77.29
2023-05-12T09:32:35.946Z,79.13
2023-05-12T09:37:39.402Z,77.97
2023-05-12T09:42:42.643Z,78.28
2023-05-12T09:47:45.445Z,73.88
2023-05-12T09:52:47.023Z,74.82
2023-05-12T09:57:49.860Z,73.54
2023-05-12T10:02:51.663Z,72.89
2023-05-12T10:07:57.659Z,73.48
2023-05-12T10:12:59.795Z,71.50
2023-05-12T10:18:01.664Z,70.84
2023-05-12T10:23:04.319Z,74.80
2023-05-12T10:28:06.217Z,75.55
2023-05-12T10:33:09.252Z,76.88
2023-05-12T10:38:13.104Z,76.40
2023-05-12T10:43:28.785Z,77.94
2023-05-12T10:48:30.543Z,76.80
2023-05-12T10:53:48.338Z,75.73
2023-05-12T10:59:13.898Z,77.45
2023-05-12T11:04:17.669Z,74.34
2023-05-12T11:09:21.538Z,74.27
2023-05-12T11:14:24.045Z,73.90
2023-05-12T11:19:25.843Z,73.96
2023-05-12T11:24:27.546Z,73.10
2023-05-12T11:29:29.081Z,70.89
2023-05-12T11:34:30.648Z,71.58
2023-05-12T11:39:32.469Z,69.89
2023-05-12T11:44:34.582Z,68.66
2023-05-12T11:49:46.828Z,68.37
2023-05-12T11:55:00.953Z,68.98
2023-05-12T12:00:07.907Z,69.05
2023-05-12T12:05:18.456Z,68.61
2023-05-12T12:10:20.404Z,67.21
2023-05-12T12:15:24.348Z,66.34
2023-05-12T12:20:26.044Z,66.59
2023-05-12T12:25:27.656Z,64.73
2023-05-12T12:30:29.288Z,65.34
2023-05-12T12:35:31.212Z,66.17
2023-05-12T12:40:32.800Z,66.82
2023-05-12T12:45:39.577Z,67.59
2023-05-12T12:50:41.343Z,66.60
2023-05-12T12:55:42.929Z,65.90
2023-05-12T13:00:44.607Z,64.90
2023-05-12T13:05:46.140Z,64.69
2023-05-12T13:10:47.743Z,65.22
2023-05-12T13:15:49.386Z,65.65
2023-05-12T13:20:51.561Z,65.57
2023-05-12T13:25:53.200Z,68.66
2023-05-12T13:30:57.795Z,71.62
2023-05-12T13:35:59.700Z,75.57
2023-05-12T13:41:03.696Z,79.87
2023-05-12T13:46:05.320Z,78.12
2023-05-12T13:51:09.636Z,77.00
2023-05-12T13:56:11.513Z,77.61
2023-05-12T14:01:16.309Z,77.64
2023-05-12T14:06:17.861Z,78.20
2023-05-12T14:11:19.481Z,78.30
2023-05-12T14:16:21.310Z,76.80
2023-05-12T14:21:22.907Z,78.16
2023-05-12T14:26:28.436Z,75.81
2023-05-12T14:31:30.098Z,82.34
2023-05-12T14:36:32.204Z,92.66
2023-05-12T14:41:34.016Z,97.68
2023-05-12T14:46:39.938Z,100.00
2023-05-12T14:51:41.851Z,100.00
2023-05-12T14:56:43.796Z,100.00
2023-05-12T15:01:46.102Z,100.00
2023-05-12T15:06:47.774Z,100.00
2023-05-12T15:11:49.951Z,100.00
2023-05-12T15:16:52.316Z,99.77
2023-05-12T15:21:53.933Z,96.66
2023-05-12T15:26:55.705Z,94.16
2023-05-12T15:31:57.353Z,92.13
2023-05-12T15:37:03.796Z,91.41
2023-05-12T15:42:06.805Z,88.88
2023-05-12T15:47:09.045Z,86.45
2023-05-12T15:52:11.483Z,82.71
2023-05-12T15:57:13.774Z,82.54
2023-05-12T16:02:15.454Z,80.18
2023-05-12T16:07:17.317Z,81.58
2023-05-12T16:12:18.907Z,81.16
2023-05-12T16:17:22.226Z,81.34
2023-05-12T16:22:23.873Z,80.89
2023-05-12T16:27:25.566Z,80.96
2023-05-12T16:32:27.294Z,81.55
2023-05-12T16:37:28.877Z,81.13
2023-05-12T16:42:31.055Z,81.46
2023-05-12T16:47:32.621Z,81.53
2023-05-12T16:52:34.323Z,81.55
2023-05-12T16:57:36.408Z,82.19
2023-05-12T17:02:38.973Z,80.82
2023-05-12T17:07:40.662Z,81.04
2023-05-12T17:12:42.468Z,81.76
2023-05-12T17:17:44.040Z,81.72
2023-05-12T17:22:47.993Z,82.72
2023-05-12T17:27:49.937Z,83.89
2023-05-12T17:32:51.809Z,85.58
2023-05-12T17:37:55.446Z,84.74
2023-05-12T17:42:57.149Z,81.85
2023-05-12T17:47:59.136Z,81.47
2023-05-12T17:53:00.728Z,83.06
2023-05-12T17:58:02.278Z,84.38
2023-05-12T18:03:04.077Z,85.75
2023-05-12T18:08:07.917Z,87.52
2023-05-12T18:13:10.335Z,88.87
2023-05-12T18:18:12.380Z,90.27
2023-05-12T18:23:13.992Z,91.44
2023-05-12T18:28:15.854Z,93.35
2023-05-12T18:33:17.800Z,95.20
2023-05-12T18:38:19.548Z,97.34
2023-05-12T18:43:22.184Z,97.32
2023-05-12T18:48:23.721Z,97.56
2023-05-12T18:53:25.541Z,98.84
2023-05-12T18:58:27.245Z,99.97
2023-05-12T19:03:28.806Z,100.00
2023-05-12T19:08:30.337Z,100.00
2023-05-12T19:13:31.863Z,100.00
2023-05-12T19:18:33.472Z,100.00
2023-05-12T19:23:35.225Z,100.00
2023-05-12T19:28:37.184Z,100.00
2023-05-12T19:33:38.766Z,100.00
2023-05-12T19:38:43.520Z,100.00
2023-05-12T19:43:45.084Z,100.00
2023-05-12T19:48:46.799Z,100.00
2023-05-12T19:53:48.346Z,100.00
2023-05-12T19:58:49.920Z,100.00
2023-05-12T20:03:53.056Z,100.00
2023-05-12T20:08:54.656Z,100.00
2023-05-12T20:13:56.253Z,100.00
2023-05-12T20:18:57.836Z,100.00
2023-05-12T20:23:59.449Z,100.00
2023-05-12T20:29:01.134Z,100.00
2023-05-12T20:34:02.778Z,100.00
2023-05-12T20:39:04.788Z,100.00
2023-05-12T20:44:06.882Z,100.00
2023-05-12T20:49:08.441Z,100.00
2023-05-12T20:54:10.007Z,100.00
2023-05-12T20:59:11.552Z,100.00
2023-05-12T21:04:13.403Z,100.00
2023-05-12T21:09:17.534Z,100.00
2023-05-12T21:14:19.068Z,100.00
2023-05-12T21:19:20.935Z,100.00
2023-05-12T21:24:22.449Z,100.00
2023-05-12T21:29:24.266Z,100.00
2023-05-12T21:34:26.415Z,100.00
2023-05-12T21:39:28.297Z,100.00
2023-05-12T21:44:29.975Z,100.00
2023-05-12T21:49:31.856Z,100.00
2023-05-12T21:54:33.804Z,100.00
2023-05-12T21:59:35.485Z,100.00
2023-05-12T22:04:37.119Z,100.00
2023-05-12T22:09:38.631Z,100.00
2023-05-12T22:14:40.398Z,100.00
2023-05-12T22:19:42.465Z,100.00
2023-05-12T22:24:44.062Z,100.00
2023-05-12T22:29:45.804Z,100.00
2023-05-12T22:34:47.334Z,100.00
2023-05-12T22:39:48.854Z,100.00
2023-05-12T22:44:50.548Z,100.00
2023-05-12T22:49:52.205Z,100.00
2023-05-12T22:54:54.729Z,100.00
2023-05-12T22:59:56.294Z,100.00
2023-05-12T23:04:57.848Z,100.00
2023-05-12T23:09:59.423Z,100.00
2023-05-12T23:15:01.016Z,100.00
2023-05-12T23:20:02.688Z,100.00
2023-05-12T23:25:04.410Z,100.00
2023-05-12T23:30:06.974Z,100.00
2023-05-12T23:35:11.991Z,100.00
2023-05-12T23:40:13.542Z,100.00
2023-05-12T23:45:15.926Z,100.00
2023-05-12T23:50:17.503Z,100.00
2023-05-12T23:55:20.160Z,100.00
